sensor_id;sensor_type;location;lat;lon;timestamp;P1;durP1;ratioP1;P2;durP2;ratioP2
29238;SDS011;16267;48.194;11.546;2023-12-04T00:02:11;8.43;;;2.85;;
29238;SDS011;16267;48.194;11.546;2023-12-04T00:04:37;5.38;;;3.92;;
29238;SDS011;16267;48.194;11.546;2023-12-04T00:07:03;9.45;;;4.15;;
29238;SDS011;16267;48.194;11.546;2023-12-04T00:09:28;7.90;;;2.80;;
29238;SDS011;16267;48.194;11.546;2023-12-04T00:11:55;8.00;;;3.17;;
29238;SDS011;16267;48.194;11.546;2023-12-04T00:14:21;4.45;;;2.78;;
29238;SDS011;16267;48.194;11.546;2023-12-04T00:16:46;11.45;;;4.50;;
29238;SDS011;16267;48.194;11.546;2023-12-04T00:19:12;7.60;;;3.88;;
29238;SDS011;16267;48.194;11.546;2023-12-04T00:21:38;6.13;;;3.45;;
29238;SDS011;16267;48.194;11.546;2023-12-04T00:24:04;5.10;;;3.10;;
29238;SDS011;16267;48.194;11.546;2023-12-04T00:26:30;5.93;;;2.85;;
29238;SDS011;16267;48.194;11.546;2023-12-04T00:28:55;9.32;;;3.28;;
29238;SDS011;16267;48.194;11.546;2023-12-04T00:31:21;9.00;;;3.75;;
29238;SDS011;16267;48.194;11.546;2023-12-04T00:33:47;7.45;;;3.92;;
29238;SDS011;16267;48.194;11.546;2023-12-04T00:36:13;8.45;;;3.72;;
29238;SDS011;16267;48.194;11.546;2023-12-04T00:38:39;10.05;;;4.85;;
29238;SDS011;16267;48.194;11.546;2023-12-04T00:41:05;5.85;;;3.10;;
29238;SDS011;16267;48.194;11.546;2023-12-04T00:43:31;5.38;;;2.80;;
29238;SDS011;16267;48.194;11.546;2023-12-04T00:45:56;7.85;;;3.20;;
29238;SDS011;16267;48.194;11.546;2023-12-04T00:48:22;9.98;;;3.45;;
29238;SDS011;16267;48.194;11.546;2023-12-04T00:50:48;8.98;;;3.22;;
29238;SDS011;16267;48.194;11.546;2023-12-04T00:53:16;7.07;;;3.30;;
29238;SDS011;16267;48.194;11.546;2023-12-04T00:55:42;8.77;;;4.00;;
29238;SDS011;16267;48.194;11.546;2023-12-04T00:58:07;6.70;;;3.55;;
29238;SDS011;16267;48.194;11.546;2023-12-04T01:00:33;4.60;;;2.63;;
29238;SDS011;16267;48.194;11.546;2023-12-04T01:02:59;4.95;;;3.40;;
29238;SDS011;16267;48.194;11.546;2023-12-04T01:05:25;6.65;;;3.85;;
29238;SDS011;16267;48.194;11.546;2023-12-04T01:07:50;4.13;;;3.05;;
29238;SDS011;16267;48.194;11.546;2023-12-04T01:10:17;13.68;;;4.28;;
29238;SDS011;16267;48.194;11.546;2023-12-04T01:12:43;5.97;;;3.40;;
29238;SDS011;16267;48.194;11.546;2023-12-04T01:15:08;5.20;;;2.78;;
29238;SDS011;16267;48.194;11.546;2023-12-04T01:17:35;5.78;;;2.70;;
29238;SDS011;16267;48.194;11.546;2023-12-04T01:20:00;9.35;;;4.80;;
29238;SDS011;16267;48.194;11.546;2023-12-04T01:22:26;13.45;;;4.47;;
29238;SDS011;16267;48.194;11.546;2023-12-04T01:24:52;7.50;;;4.57;;
29238;SDS011;16267;48.194;11.546;2023-12-04T01:27:17;6.63;;;3.45;;
29238;SDS011;16267;48.194;11.546;2023-12-04T01:29:43;7.78;;;3.40;;
29238;SDS011;16267;48.194;11.546;2023-12-04T01:32:09;9.63;;;4.90;;
29238;SDS011;16267;48.194;11.546;2023-12-04T01:34:35;11.32;;;4.45;;
29238;SDS011;16267;48.194;11.546;2023-12-04T01:37:00;8.68;;;4.43;;
29238;SDS011;16267;48.194;11.546;2023-12-04T01:39:26;6.05;;;3.35;;
29238;SDS011;16267;48.194;11.546;2023-12-04T01:41:52;11.68;;;4.85;;
29238;SDS011;16267;48.194;11.546;2023-12-04T01:44:18;7.07;;;4.70;;
29238;SDS011;16267;48.194;11.546;2023-12-04T01:46:44;6.75;;;2.85;;
29238;SDS011;16267;48.194;11.546;2023-12-04T01:49:10;10.73;;;5.32;;
29238;SDS011;16267;48.194;11.546;2023-12-04T01:51:36;11.10;;;4.45;;
29238;SDS011;16267;48.194;11.546;2023-12-04T01:54:02;7.72;;;3.03;;
29238;SDS011;16267;48.194;11.546;2023-12-04T01:56:30;8.82;;;3.72;;
29238;SDS011;16267;48.194;11.546;2023-12-04T01:58:58;7.45;;;3.90;;
29238;SDS011;16267;48.194;11.546;2023-12-04T02:01:24;10.73;;;5.28;;
29238;SDS011;16267;48.194;11.546;2023-12-04T02:03:51;7.25;;;3.47;;
29238;SDS011;16267;48.194;11.546;2023-12-04T02:06:16;9.30;;;5.20;;
29238;SDS011;16267;48.194;11.546;2023-12-04T02:08:46;6.78;;;3.40;;
29238;SDS011;16267;48.194;11.546;2023-12-04T02:11:13;6.53;;;3.38;;
29238;SDS011;16267;48.194;11.546;2023-12-04T02:13:38;11.90;;;3.38;;
29238;SDS011;16267;48.194;11.546;2023-12-04T02:16:05;9.98;;;4.57;;
29238;SDS011;16267;48.194;11.546;2023-12-04T02:18:36;8.70;;;3.20;;
29238;SDS011;16267;48.194;11.546;2023-12-04T02:21:03;6.78;;;4.13;;
29238;SDS011;16267;48.194;11.546;2023-12-04T02:23:29;7.78;;;3.95;;
29238;SDS011;16267;48.194;11.546;2023-12-04T02:25:57;15.85;;;6.35;;
29238;SDS011;16267;48.194;11.546;2023-12-04T02:28:34;7.15;;;3.47;;
29238;SDS011;16267;48.194;11.546;2023-12-04T02:31:03;12.35;;;4.43;;
29238;SDS011;16267;48.194;11.546;2023-12-04T02:33:31;5.55;;;2.97;;
29238;SDS011;16267;48.194;11.546;2023-12-04T02:36:03;9.05;;;4.32;;
29238;SDS011;16267;48.194;11.546;2023-12-04T02:38:30;5.70;;;3.40;;
29238;SDS011;16267;48.194;11.546;2023-12-04T02:40:56;10.65;;;4.53;;
29238;SDS011;16267;48.194;11.546;2023-12-04T02:43:22;9.70;;;4.45;;
29238;SDS011;16267;48.194;11.546;2023-12-04T02:45:48;9.20;;;4.65;;
29238;SDS011;16267;48.194;11.546;2023-12-04T02:48:13;6.10;;;3.22;;
29238;SDS011;16267;48.194;11.546;2023-12-04T02:50:39;7.57;;;4.50;;
29238;SDS011;16267;48.194;11.546;2023-12-04T02:53:05;12.38;;;4.47;;
29238;SDS011;16267;48.194;11.546;2023-12-04T02:55:30;13.15;;;5.88;;
29238;SDS011;16267;48.194;11.546;2023-12-04T02:57:56;8.02;;;4.07;;
29238;SDS011;16267;48.194;11.546;2023-12-04T03:00:22;5.07;;;4.03;;
29238;SDS011;16267;48.194;11.546;2023-12-04T03:02:48;7.65;;;4.05;;
29238;SDS011;16267;48.194;11.546;2023-12-04T03:05:13;7.90;;;4.32;;
29238;SDS011;16267;48.194;11.546;2023-12-04T03:07:39;9.88;;;4.88;;
29238;SDS011;16267;48.194;11.546;2023-12-04T03:10:05;5.90;;;4.75;;
29238;SDS011;16267;48.194;11.546;2023-12-04T03:12:31;8.57;;;3.58;;
29238;SDS011;16267;48.194;11.546;2023-12-04T03:14:57;8.02;;;4.20;;
29238;SDS011;16267;48.194;11.546;2023-12-04T03:17:23;11.60;;;4.07;;
29238;SDS011;16267;48.194;11.546;2023-12-04T03:19:50;6.45;;;4.10;;
29238;SDS011;16267;48.194;11.546;2023-12-04T03:22:17;8.43;;;4.13;;
29238;SDS011;16267;48.194;11.546;2023-12-04T03:24:42;8.88;;;4.13;;
29238;SDS011;16267;48.194;11.546;2023-12-04T03:27:08;12.18;;;4.70;;
29238;SDS011;16267;48.194;11.546;2023-12-04T03:29:34;4.78;;;3.40;;
29238;SDS011;16267;48.194;11.546;2023-12-04T03:32:00;7.22;;;4.20;;
29238;SDS011;16267;48.194;11.546;2023-12-04T03:34:25;8.82;;;3.55;;
29238;SDS011;16267;48.194;11.546;2023-12-04T03:36:51;8.27;;;3.83;;
29238;SDS011;16267;48.194;11.546;2023-12-04T03:39:17;7.45;;;4.10;;
29238;SDS011;16267;48.194;11.546;2023-12-04T03:41:43;7.45;;;3.70;;
29238;SDS011;16267;48.194;11.546;2023-12-04T03:44:08;9.70;;;3.42;;
29238;SDS011;16267;48.194;11.546;2023-12-04T03:46:34;8.40;;;4.43;;
29238;SDS011;16267;48.194;11.546;2023-12-04T03:49:00;8.55;;;4.43;;
29238;SDS011;16267;48.194;11.546;2023-12-04T03:51:29;10.52;;;4.28;;
29238;SDS011;16267;48.194;11.546;2023-12-04T03:53:54;5.50;;;3.13;;
29238;SDS011;16267;48.194;11.546;2023-12-04T03:56:20;11.38;;;5.20;;
29238;SDS011;16267;48.194;11.546;2023-12-04T03:58:46;8.68;;;3.00;;
29238;SDS011;16267;48.194;11.546;2023-12-04T04:01:13;7.18;;;3.95;;
29238;SDS011;16267;48.194;11.546;2023-12-04T04:03:38;12.93;;;4.20;;
29238;SDS011;16267;48.194;11.546;2023-12-04T04:06:04;9.07;;;5.30;;
29238;SDS011;16267;48.194;11.546;2023-12-04T04:08:31;10.15;;;4.68;;
29238;SDS011;16267;48.194;11.546;2023-12-04T04:10:57;6.97;;;3.72;;
29238;SDS011;16267;48.194;11.546;2023-12-04T04:13:23;5.93;;;3.55;;
29238;SDS011;16267;48.194;11.546;2023-12-04T04:15:49;8.10;;;3.28;;
29238;SDS011;16267;48.194;11.546;2023-12-04T04:18:14;8.88;;;4.25;;
29238;SDS011;16267;48.194;11.546;2023-12-04T04:20:40;9.25;;;4.43;;
29238;SDS011;16267;48.194;11.546;2023-12-04T04:23:06;7.63;;;3.55;;
29238;SDS011;16267;48.194;11.546;2023-12-04T04:25:32;9.65;;;4.47;;
29238;SDS011;16267;48.194;11.546;2023-12-04T04:27:57;5.93;;;3.47;;
29238;SDS011;16267;48.194;11.546;2023-12-04T04:30:23;10.43;;;4.35;;
29238;SDS011;16267;48.194;11.546;2023-12-04T04:32:49;8.43;;;3.85;;
29238;SDS011;16267;48.194;11.546;2023-12-04T04:35:18;5.90;;;3.28;;
29238;SDS011;16267;48.194;11.546;2023-12-04T04:37:43;7.82;;;4.35;;
29238;SDS011;16267;48.194;11.546;2023-12-04T04:40:09;11.10;;;5.70;;
29238;SDS011;16267;48.194;11.546;2023-12-04T04:42:35;7.20;;;3.72;;
29238;SDS011;16267;48.194;11.546;2023-12-04T04:45:01;11.18;;;4.45;;
29238;SDS011;16267;48.194;11.546;2023-12-04T04:47:27;6.32;;;2.97;;
29238;SDS011;16267;48.194;11.546;2023-12-04T04:49:53;7.47;;;4.25;;
29238;SDS011;16267;48.194;11.546;2023-12-04T04:52:19;8.90;;;3.03;;
29238;SDS011;16267;48.194;11.546;2023-12-04T04:54:44;8.32;;;4.05;;
29238;SDS011;16267;48.194;11.546;2023-12-04T04:57:11;7.07;;;4.10;;
29238;SDS011;16267;48.194;11.546;2023-12-04T04:59:36;8.05;;;5.07;;
29238;SDS011;16267;48.194;11.546;2023-12-04T05:02:02;6.93;;;3.97;;
29238;SDS011;16267;48.194;11.546;2023-12-04T05:04:28;12.48;;;3.90;;
29238;SDS011;16267;48.194;11.546;2023-12-04T05:06:54;10.07;;;4.13;;
29238;SDS011;16267;48.194;11.546;2023-12-04T05:09:19;7.57;;;4.05;;
29238;SDS011;16267;48.194;11.546;2023-12-04T05:11:45;7.13;;;3.80;;
29238;SDS011;16267;48.194;11.546;2023-12-04T05:14:11;10.70;;;4.72;;
29238;SDS011;16267;48.194;11.546;2023-12-04T05:16:37;7.85;;;4.40;;
29238;SDS011;16267;48.194;11.546;2023-12-04T05:19:03;8.60;;;4.38;;
29238;SDS011;16267;48.194;11.546;2023-12-04T05:21:28;8.77;;;3.50;;
29238;SDS011;16267;48.194;11.546;2023-12-04T05:23:54;6.50;;;3.55;;
29238;SDS011;16267;48.194;11.546;2023-12-04T05:26:20;7.80;;;3.90;;
29238;SDS011;16267;48.194;11.546;2023-12-04T05:28:46;6.93;;;3.70;;
29238;SDS011;16267;48.194;11.546;2023-12-04T05:31:12;11.00;;;3.42;;
29238;SDS011;16267;48.194;11.546;2023-12-04T05:33:39;12.77;;;3.65;;
29238;SDS011;16267;48.194;11.546;2023-12-04T05:36:05;3.35;;;2.78;;
29238;SDS011;16267;48.194;11.546;2023-12-04T05:38:31;6.38;;;3.13;;
29238;SDS011;16267;48.194;11.546;2023-12-04T05:40:57;4.50;;;2.70;;
29238;SDS011;16267;48.194;11.546;2023-12-04T05:43:23;7.63;;;3.92;;
29238;SDS011;16267;48.194;11.546;2023-12-04T05:45:48;8.45;;;3.47;;
29238;SDS011;16267;48.194;11.546;2023-12-04T05:48:14;5.32;;;3.53;;
29238;SDS011;16267;48.194;11.546;2023-12-04T05:50:40;7.43;;;4.40;;
29238;SDS011;16267;48.194;11.546;2023-12-04T05:53:06;7.90;;;4.38;;
29238;SDS011;16267;48.194;11.546;2023-12-04T05:55:32;9.23;;;3.45;;
29238;SDS011;16267;48.194;11.546;2023-12-04T05:57:58;6.72;;;3.33;;
29238;SDS011;16267;48.194;11.546;2023-12-04T06:00:24;8.48;;;3.42;;
29238;SDS011;16267;48.194;11.546;2023-12-04T06:02:50;6.10;;;3.15;;
29238;SDS011;16267;48.194;11.546;2023-12-04T06:05:16;7.53;;;3.80;;
29238;SDS011;16267;48.194;11.546;2023-12-04T06:07:42;6.15;;;2.60;;
29238;SDS011;16267;48.194;11.546;2023-12-04T06:10:07;9.23;;;3.03;;
29238;SDS011;16267;48.194;11.546;2023-12-04T06:12:34;11.57;;;3.88;;
29238;SDS011;16267;48.194;11.546;2023-12-04T06:14:59;11.70;;;2.97;;
29238;SDS011;16267;48.194;11.546;2023-12-04T06:17:26;6.40;;;2.97;;
29238;SDS011;16267;48.194;11.546;2023-12-04T06:19:52;7.53;;;2.83;;
29238;SDS011;16267;48.194;11.546;2023-12-04T06:22:19;4.47;;;2.90;;
29238;SDS011;16267;48.194;11.546;2023-12-04T06:24:46;8.07;;;2.92;;
29238;SDS011;16267;48.194;11.546;2023-12-04T06:27:17;8.43;;;3.50;;
29238;SDS011;16267;48.194;11.546;2023-12-04T06:29:47;5.28;;;3.55;;
29238;SDS011;16267;48.194;11.546;2023-12-04T06:32:14;4.90;;;3.33;;
29238;SDS011;16267;48.194;11.546;2023-12-04T06:34:40;6.05;;;3.08;;
29238;SDS011;16267;48.194;11.546;2023-12-04T06:37:09;8.50;;;2.45;;
29238;SDS011;16267;48.194;11.546;2023-12-04T06:39:38;12.57;;;3.53;;
29238;SDS011;16267;48.194;11.546;2023-12-04T06:42:05;3.92;;;1.92;;
29238;SDS011;16267;48.194;11.546;2023-12-04T06:44:32;5.43;;;2.42;;
29238;SDS011;16267;48.194;11.546;2023-12-04T06:47:00;12.98;;;3.50;;
29238;SDS011;16267;48.194;11.546;2023-12-04T06:49:30;3.70;;;2.50;;
29238;SDS011;16267;48.194;11.546;2023-12-04T06:51:58;6.07;;;3.15;;
29238;SDS011;16267;48.194;11.546;2023-12-04T06:54:25;6.72;;;4.38;;
29238;SDS011;16267;48.194;11.546;2023-12-04T06:56:51;6.82;;;3.47;;
29238;SDS011;16267;48.194;11.546;2023-12-04T06:59:17;9.18;;;3.28;;
29238;SDS011;16267;48.194;11.546;2023-12-04T07:01:44;5.35;;;2.55;;
29238;SDS011;16267;48.194;11.546;2023-12-04T07:04:10;7.07;;;3.95;;
29238;SDS011;16267;48.194;11.546;2023-12-04T07:06:36;8.35;;;4.07;;
29238;SDS011;16267;48.194;11.546;2023-12-04T07:09:03;3.13;;;2.22;;
29238;SDS011;16267;48.194;11.546;2023-12-04T07:11:30;7.85;;;3.88;;
29238;SDS011;16267;48.194;11.546;2023-12-04T07:13:55;8.13;;;3.35;;
29238;SDS011;16267;48.194;11.546;2023-12-04T07:16:21;9.88;;;3.42;;
29238;SDS011;16267;48.194;11.546;2023-12-04T07:18:47;5.15;;;2.92;;
29238;SDS011;16267;48.194;11.546;2023-12-04T07:21:13;7.10;;;3.55;;
29238;SDS011;16267;48.194;11.546;2023-12-04T07:23:38;8.82;;;4.15;;
29238;SDS011;16267;48.194;11.546;2023-12-04T07:26:04;6.10;;;3.40;;
29238;SDS011;16267;48.194;11.546;2023-12-04T07:28:31;16.25;;;4.43;;
29238;SDS011;16267;48.194;11.546;2023-12-04T07:30:58;10.07;;;3.85;;
29238;SDS011;16267;48.194;11.546;2023-12-04T07:33:25;7.05;;;4.22;;
29238;SDS011;16267;48.194;11.546;2023-12-04T07:35:51;5.32;;;3.00;;
29238;SDS011;16267;48.194;11.546;2023-12-04T07:38:17;9.23;;;4.13;;
29238;SDS011;16267;48.194;11.546;2023-12-04T07:43:13;4.78;;;2.85;;
29238;SDS011;16267;48.194;11.546;2023-12-04T07:45:42;11.43;;;4.50;;
29238;SDS011;16267;48.194;11.546;2023-12-04T07:48:08;4.97;;;2.38;;
29238;SDS011;16267;48.194;11.546;2023-12-04T07:50:34;4.80;;;3.75;;
29238;SDS011;16267;48.194;11.546;2023-12-04T07:53:00;7.97;;;4.10;;
29238;SDS011;16267;48.194;11.546;2023-12-04T07:55:26;7.65;;;4.22;;
29238;SDS011;16267;48.194;11.546;2023-12-04T07:57:52;7.25;;;3.25;;
29238;SDS011;16267;48.194;11.546;2023-12-04T08:00:18;5.18;;;3.63;;
29238;SDS011;16267;48.194;11.546;2023-12-04T08:02:44;8.57;;;4.43;;
29238;SDS011;16267;48.194;11.546;2023-12-04T08:05:12;8.43;;;4.53;;
29238;SDS011;16267;48.194;11.546;2023-12-04T08:07:38;10.82;;;3.85;;
29238;SDS011;16267;48.194;11.546;2023-12-04T08:10:04;8.90;;;4.80;;
29238;SDS011;16267;48.194;11.546;2023-12-04T08:12:31;5.32;;;2.72;;
29238;SDS011;16267;48.194;11.546;2023-12-04T08:14:58;8.63;;;4.53;;
29238;SDS011;16267;48.194;11.546;2023-12-04T08:17:24;7.25;;;3.97;;
29238;SDS011;16267;48.194;11.546;2023-12-04T08:19:50;9.10;;;3.97;;
29238;SDS011;16267;48.194;11.546;2023-12-04T08:22:16;5.07;;;2.92;;
29238;SDS011;16267;48.194;11.546;2023-12-04T08:24:42;7.38;;;4.00;;
29238;SDS011;16267;48.194;11.546;2023-12-04T08:27:07;5.03;;;2.25;;
29238;SDS011;16267;48.194;11.546;2023-12-04T08:29:33;11.75;;;5.43;;
29238;SDS011;16267;48.194;11.546;2023-12-04T08:34:29;7.63;;;3.55;;
29238;SDS011;16267;48.194;11.546;2023-12-04T08:36:56;8.30;;;5.25;;
29238;SDS011;16267;48.194;11.546;2023-12-04T08:39:22;8.93;;;4.13;;
29238;SDS011;16267;48.194;11.546;2023-12-04T08:41:48;17.35;;;4.55;;
29238;SDS011;16267;48.194;11.546;2023-12-04T08:44:14;14.10;;;5.20;;
29238;SDS011;16267;48.194;11.546;2023-12-04T08:46:41;13.48;;;4.40;;
29238;SDS011;16267;48.194;11.546;2023-12-04T08:49:09;8.40;;;3.45;;
29238;SDS011;16267;48.194;11.546;2023-12-04T08:51:37;8.15;;;4.70;;
29238;SDS011;16267;48.194;11.546;2023-12-04T08:54:03;11.55;;;5.18;;
29238;SDS011;16267;48.194;11.546;2023-12-04T08:56:29;7.00;;;3.78;;
29238;SDS011;16267;48.194;11.546;2023-12-04T08:58:58;10.93;;;5.15;;
29238;SDS011;16267;48.194;11.546;2023-12-04T09:01:24;6.32;;;4.18;;
29238;SDS011;16267;48.194;11.546;2023-12-04T09:03:51;14.15;;;3.65;;
29238;SDS011;16267;48.194;11.546;2023-12-04T09:06:17;10.77;;;4.57;;
29238;SDS011;16267;48.194;11.546;2023-12-04T09:08:43;10.38;;;3.70;;
29238;SDS011;16267;48.194;11.546;2023-12-04T09:11:11;13.75;;;5.20;;
29238;SDS011;16267;48.194;11.546;2023-12-04T09:13:37;7.70;;;3.70;;
29238;SDS011;16267;48.194;11.546;2023-12-04T09:16:03;6.45;;;3.70;;
29238;SDS011;16267;48.194;11.546;2023-12-04T09:18:30;7.85;;;4.10;;
29238;SDS011;16267;48.194;11.546;2023-12-04T09:20:55;9.75;;;4.47;;
29238;SDS011;16267;48.194;11.546;2023-12-04T09:23:21;11.85;;;5.38;;
29238;SDS011;16267;48.194;11.546;2023-12-04T09:25:47;17.42;;;4.50;;
29238;SDS011;16267;48.194;11.546;2023-12-04T09:28:13;11.93;;;5.60;;
29238;SDS011;16267;48.194;11.546;2023-12-04T09:30:39;13.40;;;4.55;;
29238;SDS011;16267;48.194;11.546;2023-12-04T09:33:05;9.50;;;3.90;;
29238;SDS011;16267;48.194;11.546;2023-12-04T09:35:34;8.55;;;5.00;;
29238;SDS011;16267;48.194;11.546;2023-12-04T09:38:06;9.43;;;4.35;;
29238;SDS011;16267;48.194;11.546;2023-12-04T09:40:32;6.85;;;5.13;;
29238;SDS011;16267;48.194;11.546;2023-12-04T09:42:58;10.25;;;4.07;;
29238;SDS011;16267;48.194;11.546;2023-12-04T09:45:24;8.75;;;5.07;;
29238;SDS011;16267;48.194;11.546;2023-12-04T09:47:50;10.25;;;3.88;;
29238;SDS011;16267;48.194;11.546;2023-12-04T09:50:16;12.93;;;5.13;;
29238;SDS011;16267;48.194;11.546;2023-12-04T09:52:47;7.93;;;4.07;;
29238;SDS011;16267;48.194;11.546;2023-12-04T09:55:19;11.45;;;4.72;;
29238;SDS011;16267;48.194;11.546;2023-12-04T09:57:45;4.10;;;3.05;;
29238;SDS011;16267;48.194;11.546;2023-12-04T10:00:15;9.98;;;4.72;;
29238;SDS011;16267;48.194;11.546;2023-12-04T10:02:45;14.98;;;6.18;;
29238;SDS011;16267;48.194;11.546;2023-12-04T10:05:15;6.97;;;4.07;;
29238;SDS011;16267;48.194;11.546;2023-12-04T10:07:43;8.30;;;4.60;;
29238;SDS011;16267;48.194;11.546;2023-12-04T10:10:09;12.25;;;5.30;;
29238;SDS011;16267;48.194;11.546;2023-12-04T10:12:36;10.90;;;4.40;;
29238;SDS011;16267;48.194;11.546;2023-12-04T10:15:02;11.05;;;4.95;;
29238;SDS011;16267;48.194;11.546;2023-12-04T10:17:37;6.78;;;3.70;;
29238;SDS011;16267;48.194;11.546;2023-12-04T10:22:59;7.88;;;4.07;;
29238;SDS011;16267;48.194;11.546;2023-12-04T10:25:29;10.43;;;4.68;;
29238;SDS011;16267;48.194;11.546;2023-12-04T10:28:09;13.40;;;6.05;;
29238;SDS011;16267;48.194;11.546;2023-12-04T10:30:43;8.68;;;5.53;;
29238;SDS011;16267;48.194;11.546;2023-12-04T10:33:11;9.75;;;4.82;;
29238;SDS011;16267;48.194;11.546;2023-12-04T10:38:07;8.40;;;3.88;;
29238;SDS011;16267;48.194;11.546;2023-12-04T10:40:34;10.32;;;4.65;;
29238;SDS011;16267;48.194;11.546;2023-12-04T10:43:09;11.43;;;5.00;;
29238;SDS011;16267;48.194;11.546;2023-12-04T10:45:40;19.90;;;5.97;;
29238;SDS011;16267;48.194;11.546;2023-12-04T10:48:08;14.50;;;7.68;;
29238;SDS011;16267;48.194;11.546;2023-12-04T10:50:53;21.48;;;6.93;;
29238;SDS011;16267;48.194;11.546;2023-12-04T10:53:19;13.02;;;6.78;;
29238;SDS011;16267;48.194;11.546;2023-12-04T10:55:45;13.27;;;5.60;;
29238;SDS011;16267;48.194;11.546;2023-12-04T10:58:14;13.07;;;6.72;;
29238;SDS011;16267;48.194;11.546;2023-12-04T11:00:45;13.85;;;5.57;;
29238;SDS011;16267;48.194;11.546;2023-12-04T11:03:36;13.55;;;4.47;;
29238;SDS011;16267;48.194;11.546;2023-12-04T11:06:09;12.73;;;4.82;;
29238;SDS011;16267;48.194;11.546;2023-12-04T11:08:41;14.02;;;8.02;;
29238;SDS011;16267;48.194;11.546;2023-12-04T11:11:09;14.10;;;6.40;;
29238;SDS011;16267;48.194;11.546;2023-12-04T11:13:40;12.23;;;6.65;;
29238;SDS011;16267;48.194;11.546;2023-12-04T11:19:14;7.03;;;4.00;;
29238;SDS011;16267;48.194;11.546;2023-12-04T11:21:53;18.30;;;6.18;;
29238;SDS011;16267;48.194;11.546;2023-12-04T11:24:22;15.07;;;7.10;;
29238;SDS011;16267;48.194;11.546;2023-12-04T11:26:49;14.23;;;6.55;;
29238;SDS011;16267;48.194;11.546;2023-12-04T11:29:16;12.40;;;6.25;;
29238;SDS011;16267;48.194;11.546;2023-12-04T11:31:43;15.90;;;8.38;;
29238;SDS011;16267;48.194;11.546;2023-12-04T11:34:11;12.38;;;7.35;;
29238;SDS011;16267;48.194;11.546;2023-12-04T11:36:38;14.77;;;6.55;;
29238;SDS011;16267;48.194;11.546;2023-12-04T11:39:11;14.80;;;6.85;;
29238;SDS011;16267;48.194;11.546;2023-12-04T11:41:37;16.67;;;7.30;;
29238;SDS011;16267;48.194;11.546;2023-12-04T11:44:03;23.20;;;7.75;;
29238;SDS011;16267;48.194;11.546;2023-12-04T11:46:36;8.73;;;6.20;;
29238;SDS011;16267;48.194;11.546;2023-12-04T11:51:49;14.50;;;6.10;;
29238;SDS011;16267;48.194;11.546;2023-12-04T11:54:17;18.17;;;7.38;;
29238;SDS011;16267;48.194;11.546;2023-12-04T11:59:38;7.72;;;4.95;;
29238;SDS011;16267;48.194;11.546;2023-12-04T12:02:07;17.45;;;5.78;;
29238;SDS011;16267;48.194;11.546;2023-12-04T12:04:34;12.60;;;5.63;;
29238;SDS011;16267;48.194;11.546;2023-12-04T12:07:01;13.45;;;5.72;;
29238;SDS011;16267;48.194;11.546;2023-12-04T12:09:30;16.20;;;6.68;;
29238;SDS011;16267;48.194;11.546;2023-12-04T12:12:00;14.10;;;7.80;;
29238;SDS011;16267;48.194;11.546;2023-12-04T12:14:28;15.13;;;7.05;;
29238;SDS011;16267;48.194;11.546;2023-12-04T12:16:57;10.20;;;6.45;;
29238;SDS011;16267;48.194;11.546;2023-12-04T12:19:25;11.95;;;6.40;;
29238;SDS011;16267;48.194;11.546;2023-12-04T12:21:51;12.50;;;7.70;;
29238;SDS011;16267;48.194;11.546;2023-12-04T12:24:17;11.38;;;6.68;;
29238;SDS011;16267;48.194;11.546;2023-12-04T12:26:44;12.63;;;6.20;;
29238;SDS011;16267;48.194;11.546;2023-12-04T12:29:10;13.65;;;6.88;;
29238;SDS011;16267;48.194;11.546;2023-12-04T12:31:39;13.68;;;6.45;;
29238;SDS011;16267;48.194;11.546;2023-12-04T12:34:05;16.50;;;6.63;;
29238;SDS011;16267;48.194;11.546;2023-12-04T12:36:31;13.75;;;7.43;;
29238;SDS011;16267;48.194;11.546;2023-12-04T12:38:59;15.88;;;7.50;;
29238;SDS011;16267;48.194;11.546;2023-12-04T12:41:28;10.23;;;5.38;;
29238;SDS011;16267;48.194;11.546;2023-12-04T12:43:55;11.73;;;4.93;;
29238;SDS011;16267;48.194;11.546;2023-12-04T12:46:21;14.95;;;7.45;;
29238;SDS011;16267;48.194;11.546;2023-12-04T12:48:47;12.77;;;6.28;;
29238;SDS011;16267;48.194;11.546;2023-12-04T12:51:13;10.35;;;6.07;;
29238;SDS011;16267;48.194;11.546;2023-12-04T12:53:39;14.70;;;6.47;;
29238;SDS011;16267;48.194;11.546;2023-12-04T12:56:05;34.40;;;15.43;;
29238;SDS011;16267;48.194;11.546;2023-12-04T12:58:33;22.90;;;10.30;;
29238;SDS011;16267;48.194;11.546;2023-12-04T13:00:59;18.67;;;7.22;;
29238;SDS011;16267;48.194;11.546;2023-12-04T13:03:30;16.10;;;7.47;;
29238;SDS011;16267;48.194;11.546;2023-12-04T13:05:59;16.15;;;8.05;;
29238;SDS011;16267;48.194;11.546;2023-12-04T13:08:24;12.30;;;6.20;;
29238;SDS011;16267;48.194;11.546;2023-12-04T13:10:53;14.95;;;8.35;;
29238;SDS011;16267;48.194;11.546;2023-12-04T13:13:19;16.38;;;8.50;;
29238;SDS011;16267;48.194;11.546;2023-12-04T13:15:44;9.38;;;6.43;;
29238;SDS011;16267;48.194;11.546;2023-12-04T13:18:10;12.88;;;6.78;;
29238;SDS011;16267;48.194;11.546;2023-12-04T13:20:36;9.80;;;6.00;;
29238;SDS011;16267;48.194;11.546;2023-12-04T13:23:02;12.85;;;7.00;;
29238;SDS011;16267;48.194;11.546;2023-12-04T13:25:27;12.82;;;5.97;;
29238;SDS011;16267;48.194;11.546;2023-12-04T13:27:53;20.70;;;8.27;;
29238;SDS011;16267;48.194;11.546;2023-12-04T13:30:19;22.65;;;7.20;;
29238;SDS011;16267;48.194;11.546;2023-12-04T13:32:45;13.55;;;6.80;;
29238;SDS011;16267;48.194;11.546;2023-12-04T13:35:11;12.88;;;7.05;;
29238;SDS011;16267;48.194;11.546;2023-12-04T13:37:37;14.48;;;6.07;;
29238;SDS011;16267;48.194;11.546;2023-12-04T13:40:04;18.50;;;7.15;;
29238;SDS011;16267;48.194;11.546;2023-12-04T13:42:33;13.20;;;6.53;;
29238;SDS011;16267;48.194;11.546;2023-12-04T13:45:17;15.90;;;7.75;;
29238;SDS011;16267;48.194;11.546;2023-12-04T13:47:46;13.07;;;7.15;;
29238;SDS011;16267;48.194;11.546;2023-12-04T13:50:11;15.40;;;6.93;;
29238;SDS011;16267;48.194;11.546;2023-12-04T13:52:37;16.33;;;7.30;;
29238;SDS011;16267;48.194;11.546;2023-12-04T13:55:04;20.73;;;8.32;;
29238;SDS011;16267;48.194;11.546;2023-12-04T13:57:40;9.95;;;6.30;;
29238;SDS011;16267;48.194;11.546;2023-12-04T14:00:34;15.05;;;5.57;;
29238;SDS011;16267;48.194;11.546;2023-12-04T14:03:01;14.27;;;6.03;;
29238;SDS011;16267;48.194;11.546;2023-12-04T14:05:30;10.77;;;6.00;;
29238;SDS011;16267;48.194;11.546;2023-12-04T14:07:56;12.35;;;6.80;;
29238;SDS011;16267;48.194;11.546;2023-12-04T14:10:26;8.00;;;5.63;;
29238;SDS011;16267;48.194;11.546;2023-12-04T14:12:52;14.88;;;5.15;;
29238;SDS011;16267;48.194;11.546;2023-12-04T14:15:19;14.55;;;6.05;;
29238;SDS011;16267;48.194;11.546;2023-12-04T14:17:48;10.80;;;5.45;;
29238;SDS011;16267;48.194;11.546;2023-12-04T14:20:14;11.13;;;6.22;;
29238;SDS011;16267;48.194;11.546;2023-12-04T14:22:43;13.45;;;6.03;;
29238;SDS011;16267;48.194;11.546;2023-12-04T14:25:13;17.70;;;5.38;;
29238;SDS011;16267;48.194;11.546;2023-12-04T14:27:39;13.68;;;5.65;;
29238;SDS011;16267;48.194;11.546;2023-12-04T14:30:09;10.98;;;5.85;;
29238;SDS011;16267;48.194;11.546;2023-12-04T14:32:36;10.07;;;6.55;;
29238;SDS011;16267;48.194;11.546;2023-12-04T14:35:05;12.38;;;5.20;;
29238;SDS011;16267;48.194;11.546;2023-12-04T14:37:32;14.55;;;6.25;;
29238;SDS011;16267;48.194;11.546;2023-12-04T14:40:00;8.65;;;4.72;;
29238;SDS011;16267;48.194;11.546;2023-12-04T14:42:33;10.02;;;5.25;;
29238;SDS011;16267;48.194;11.546;2023-12-04T14:45:01;8.05;;;4.68;;
29238;SDS011;16267;48.194;11.546;2023-12-04T14:47:28;8.52;;;4.07;;